Colchester, Vermont
Current Conditions -  °F | °C
As of 4:36 PM on Wednesday 17 Dec 2014 (Local Time) from KBTV Reporting Station
Haze Haze  
Wind Chill: 32°   Ceiling: 300
Heat Index: 37°   Visibility: 2mi
Dew Point: 35°   Wind: 6mph
Humidity: 93%   Direction: 230°SW
Pressure: 29.75"   Gusts: NA
Location:  44.54°N, 73.15°W
Report Text: KBTV 172136Z 23005KT 2SM R15/5500VP6000FT BR BKN003 OVC048 03/02 A2975 RMK AO2 VIS 1V2 1/2 T00280017
Loading
Personal Weather Stations






























Interactive Weather Map New forecast layout! Learn more

10-Day Weather Forecast

Advertisements
Track Severe Weather on mobile